Terminal Aerodrome Forecast
Issued by NWS Wakefield, VA

Home | Current Version | Previous Version | Text Only | Print | Product List | Glossary On
Versions: 1 2 3 4 5 6 7 8 9 10 11 12 13 14 15 16 17 18 19 20 21 22 23
026
FTUS41 KAKQ 300912 AAA
TAFRIC
TAF AMD
KRIC 300912Z 3009/0106 02005KT P6SM OVC007
     FM301400 06005KT P6SM OVC008
     FM301800 08007KT P6SM SCT010 OVC015
     FM302100 10005KT P6SM OVC025=

USA.gov is the U.S. government's official web portal to all federal, state and local government web resources and services.